Bikin, Russia
Current Conditions -  °F | °C
As of 4:00 PM on Sunday 26 Oct 2014 (Local Time) from UHHH Reporting Station
Drizzle Drizzle  
Wind Chill: 30°   Ceiling: 400
Heat Index: 34°   Visibility: 3mi
Dew Point: 34°   Wind: 4mph
Humidity: 100%   Direction: 300°WNW
Pressure: 29.65"   Gusts: NA
Location:  46.82°N, 134.26°E
Report Text: UHHH 260600Z 30002MPS 5000 -DZ BR OVC004 01/01 Q1004 NOSIG RMKQBB140 OBST OBSC QFE746/0995 55290045
Loading
Personal Weather Stations






























Interactive Weather Map
Tropical Storm Tracking
New forecast layout! Learn more

10-Day Weather Forecast

Advertisements
Track Severe Weather on mobile